createdAt,value
2023-02-03T00:00:32.804Z,1006.84
2023-02-03T00:01:03.534Z,1006.74
2023-02-03T00:01:36.642Z,1006.74
2023-02-03T00:02:07.656Z,1006.53
2023-02-03T00:02:40.544Z,1006.53
2023-02-03T00:03:11.529Z,1006.64
2023-02-03T00:03:44.378Z,1006.64
2023-02-03T00:04:15.662Z,1006.64
2023-02-03T00:04:48.263Z,1006.64
2023-02-03T00:05:19.427Z,1006.64
2023-02-03T00:05:52.314Z,1006.64
2023-02-03T00:06:23.416Z,1006.53
2023-02-03T00:07:11.785Z,1006.74
2023-02-03T00:07:43.216Z,1006.74
2023-02-03T00:08:27.294Z,1006.53
2023-02-03T00:08:59.124Z,1006.53
2023-02-03T00:09:31.278Z,1006.43
2023-02-03T00:10:03.228Z,1006.53
2023-02-03T00:10:35.642Z,1006.53
2023-02-03T00:11:07.145Z,1006.53
2023-02-03T00:11:39.143Z,1006.53
2023-02-03T00:12:11.386Z,1006.53
2023-02-03T00:12:43.113Z,1006.53
2023-02-03T00:13:14.962Z,1006.53
2023-02-03T00:13:47.141Z,1006.53
2023-02-03T00:14:19.086Z,1006.33
2023-02-03T00:14:51.193Z,1006.33
2023-02-03T00:15:23.017Z,1006.53
2023-02-03T00:15:55.032Z,1006.53
2023-02-03T00:16:27.172Z,1006.43
2023-02-03T00:16:59.033Z,1006.43
2023-02-03T00:17:30.952Z,1006.43
2023-02-03T00:18:02.997Z,1006.23
2023-02-03T00:18:34.941Z,1006.23
2023-02-03T00:19:06.700Z,1006.43
2023-02-03T00:19:38.749Z,1006.43
2023-02-03T00:20:10.878Z,1006.13
2023-02-03T00:20:42.874Z,1006.13
2023-02-03T00:21:14.664Z,1006.23
2023-02-03T00:21:46.792Z,1006.23
2023-02-03T00:22:18.809Z,1006.33
2023-02-03T00:22:50.877Z,1006.33
2023-02-03T00:23:22.528Z,1006.33
2023-02-03T00:23:54.608Z,1006.33
2023-02-03T00:24:26.731Z,1006.23
2023-02-03T00:24:58.617Z,1006.23
2023-02-03T00:25:30.538Z,1006.23
2023-02-03T00:26:02.575Z,1006.03
2023-02-03T00:26:34.528Z,1006.03
2023-02-03T00:27:06.513Z,1006.13
2023-02-03T00:27:38.434Z,1006.13
2023-02-03T00:28:10.520Z,1006.13
2023-02-03T00:28:42.446Z,1006.13
2023-02-03T00:29:14.473Z,1005.93
2023-02-03T00:29:46.595Z,1005.93
2023-02-03T00:30:18.689Z,1005.72
2023-02-03T00:30:50.750Z,1005.72
2023-02-03T00:31:22.595Z,1005.72
2023-02-03T00:31:54.430Z,1005.72
2023-02-03T00:32:26.465Z,1005.72
2023-02-03T00:32:58.305Z,1005.72
2023-02-03T00:33:30.356Z,1005.62
2023-02-03T00:34:02.118Z,1005.82
2023-02-03T00:34:34.196Z,1005.82
2023-02-03T00:35:06.232Z,1005.82
2023-02-03T00:35:38.140Z,1005.82
2023-02-03T00:36:10.099Z,1006.03
2023-02-03T00:36:43.102Z,1006.03
2023-02-03T00:37:14.104Z,1006.13
2023-02-03T00:37:46.009Z,1006.13
2023-02-03T00:38:18.016Z,1006.03
2023-02-03T00:38:49.953Z,1006.03
2023-02-03T00:39:22.032Z,1005.93
2023-02-03T00:39:53.839Z,1005.93
2023-02-03T00:40:26.212Z,1006.03
2023-02-03T00:40:57.977Z,1006.03
2023-02-03T00:41:30.263Z,1006.03
2023-02-03T00:42:01.875Z,1006.03
2023-02-03T00:42:34.061Z,1006.03
2023-02-03T00:43:05.830Z,1006.03
2023-02-03T00:43:37.853Z,1006.03
2023-02-03T00:44:09.664Z,1005.93
2023-02-03T00:44:41.725Z,1005.93
2023-02-03T00:45:13.841Z,1005.93
2023-02-03T00:45:45.917Z,1005.93
2023-02-03T00:46:17.821Z,1005.82
2023-02-03T00:46:49.664Z,1005.82
2023-02-03T00:47:21.648Z,1005.82
2023-02-03T00:47:53.630Z,1005.82
2023-02-03T00:48:25.499Z,1005.93
2023-02-03T00:48:57.713Z,1005.93
2023-02-03T00:49:29.575Z,1005.72
2023-02-03T00:50:01.836Z,1005.72
2023-02-03T00:50:33.546Z,1005.72
2023-02-03T00:51:05.442Z,1005.82
2023-02-03T00:51:37.545Z,1005.82
2023-02-03T00:52:09.341Z,1005.82
2023-02-03T00:52:41.473Z,1005.82
2023-02-03T00:53:13.351Z,1005.93
2023-02-03T00:53:46.285Z,1005.93
2023-02-03T00:54:17.324Z,1005.93
2023-02-03T00:54:49.418Z,1005.93
2023-02-03T00:55:21.448Z,1005.93
2023-02-03T00:55:53.351Z,1005.93
2023-02-03T00:56:25.192Z,1005.82
2023-02-03T00:56:57.214Z,1005.82
2023-02-03T00:57:29.235Z,1005.93
2023-02-03T00:58:01.279Z,1005.93
2023-02-03T00:58:33.089Z,1005.93
2023-02-03T00:59:06.125Z,1005.82
2023-02-03T00:59:37.271Z,1005.82
2023-02-03T01:00:10.909Z,1005.82
2023-02-03T01:00:41.113Z,1005.82
2023-02-03T01:01:13.984Z,1005.82
2023-02-03T01:01:45.113Z,1005.82
2023-02-03T01:02:18.222Z,1005.82
2023-02-03T01:02:48.887Z,1005.82
2023-02-03T01:03:21.939Z,1005.82
2023-02-03T01:03:52.963Z,1005.82
2023-02-03T01:04:25.915Z,1005.72
2023-02-03T01:04:56.800Z,1005.72
2023-02-03T01:05:29.777Z,1005.82
2023-02-03T01:06:01.037Z,1005.82
2023-02-03T01:06:34.902Z,1005.93
2023-02-03T01:07:04.850Z,1005.93
2023-02-03T01:07:37.751Z,1005.93
2023-02-03T01:08:08.767Z,1005.72
2023-02-03T01:08:41.572Z,1005.72
2023-02-03T01:09:12.655Z,1005.72
2023-02-03T01:09:45.691Z,1005.72
2023-02-03T01:10:16.893Z,1005.82
2023-02-03T01:10:49.674Z,1005.82
2023-02-03T01:11:20.731Z,1005.93
2023-02-03T01:11:53.565Z,1005.93
2023-02-03T01:12:24.654Z,1005.82
2023-02-03T01:12:57.486Z,1005.82
2023-02-03T01:13:28.671Z,1005.82
2023-02-03T01:14:01.569Z,1005.82
2023-02-03T01:14:32.543Z,1005.82
2023-02-03T01:15:05.781Z,1005.72
2023-02-03T01:15:36.428Z,1005.72
2023-02-03T01:16:09.415Z,1005.72
2023-02-03T01:16:40.592Z,1005.72
2023-02-03T01:17:13.298Z,1005.62
2023-02-03T01:17:44.333Z,1005.62
2023-02-03T01:18:17.356Z,1005.62
2023-02-03T01:18:48.392Z,1005.62
2023-02-03T01:19:21.201Z,1005.72
2023-02-03T01:19:52.241Z,1005.72
2023-02-03T01:20:25.770Z,1005.72
2023-02-03T01:20:56.298Z,1005.72
2023-02-03T01:21:29.994Z,1005.93
2023-02-03T01:22:00.150Z,1005.93
2023-02-03T01:22:33.027Z,1005.62
2023-02-03T01:23:04.203Z,1005.82
2023-02-03T01:23:37.025Z,1005.82
2023-02-03T01:24:08.080Z,1005.72
2023-02-03T01:24:41.236Z,1005.72
2023-02-03T01:25:12.154Z,1005.72
2023-02-03T01:25:44.850Z,1005.72
2023-02-03T01:26:16.091Z,1005.72
2023-02-03T01:26:49.008Z,1005.72
2023-02-03T01:27:20.027Z,1005.72
2023-02-03T01:27:52.810Z,1005.72
2023-02-03T01:28:23.839Z,1005.72
2023-02-03T01:28:56.821Z,1005.72
2023-02-03T01:29:27.978Z,1005.62
2023-02-03T01:30:01.480Z,1005.62
2023-02-03T01:30:31.912Z,1005.72
2023-02-03T01:31:04.938Z,1005.72
2023-02-03T01:31:35.994Z,1005.72
2023-02-03T01:32:08.657Z,1005.62
2023-02-03T01:32:39.700Z,1005.62
2023-02-03T01:33:13.658Z,1005.82
2023-02-03T01:33:43.627Z,1005.82
2023-02-03T01:34:16.577Z,1005.82
2023-02-03T01:34:47.732Z,1005.82
2023-02-03T01:35:20.667Z,1005.82
2023-02-03T01:35:51.581Z,1005.82
2023-02-03T01:36:24.443Z,1005.72
2023-02-03T01:36:55.561Z,1005.72
2023-02-03T01:37:28.632Z,1005.72
2023-02-03T01:37:59.571Z,1005.72
2023-02-03T01:38:32.515Z,1005.62
2023-02-03T01:39:03.455Z,1005.72
2023-02-03T01:39:36.767Z,1005.72
2023-02-03T01:40:07.405Z,1005.62
2023-02-03T01:40:40.377Z,1005.62
2023-02-03T01:41:11.516Z,1005.82
2023-02-03T01:41:44.163Z,1005.82
2023-02-03T01:42:15.280Z,1005.72
2023-02-03T01:42:48.199Z,1005.72
2023-02-03T01:43:19.302Z,1005.82
2023-02-03T01:43:52.453Z,1005.82
2023-02-03T01:44:23.189Z,1005.93
2023-02-03T01:44:56.094Z,1005.93
2023-02-03T01:45:27.452Z,1005.72
2023-02-03T01:46:00.248Z,1005.72
2023-02-03T01:46:31.253Z,1005.82
2023-02-03T01:47:04.050Z,1005.72
2023-02-03T01:47:35.138Z,1005.72
2023-02-03T01:48:08.016Z,1006.03
2023-02-03T01:48:39.058Z,1006.03
2023-02-03T01:49:12.835Z,1006.03
2023-02-03T01:49:43.224Z,1006.03
2023-02-03T01:50:15.874Z,1005.82
2023-02-03T01:50:46.995Z,1005.82
2023-02-03T01:51:19.869Z,1006.03
2023-02-03T01:51:51.047Z,1006.03
2023-02-03T01:52:23.770Z,1005.93
2023-02-03T01:52:54.828Z,1005.93
2023-02-03T01:53:27.857Z,1005.93
2023-02-03T01:53:58.897Z,1005.93
2023-02-03T01:54:31.655Z,1005.82
2023-02-03T01:55:02.768Z,1005.93
2023-02-03T01:55:36.082Z,1005.93
2023-02-03T01:56:07.002Z,1005.82
2023-02-03T01:56:39.584Z,1005.82
2023-02-03T01:57:10.745Z,1005.72
2023-02-03T01:57:43.593Z,1005.72
2023-02-03T01:58:14.762Z,1005.93
2023-02-03T01:58:47.459Z,1005.93
2023-02-03T01:59:18.616Z,1005.93
2023-02-03T01:59:51.655Z,1005.93
2023-02-03T02:00:22.904Z,1005.72
2023-02-03T02:00:55.445Z,1005.72
2023-02-03T02:01:26.563Z,1005.72
2023-02-03T02:01:59.446Z,1005.72
2023-02-03T02:02:30.860Z,1005.82
2023-02-03T02:03:03.387Z,1005.82
2023-02-03T02:03:34.417Z,1005.82
2023-02-03T02:04:07.336Z,1005.82
2023-02-03T02:04:38.449Z,1005.82
2023-02-03T02:05:11.252Z,1005.93
2023-02-03T02:05:42.371Z,1005.93
2023-02-03T02:06:15.412Z,1005.82
2023-02-03T02:06:46.403Z,1005.82
2023-02-03T02:07:19.144Z,1005.93
2023-02-03T02:07:50.247Z,1005.93
2023-02-03T02:08:23.145Z,1005.72
2023-02-03T02:08:54.283Z,1005.72
2023-02-03T02:09:27.121Z,1005.82
2023-02-03T02:09:58.155Z,1005.82
2023-02-03T02:10:31.156Z,1005.72
2023-02-03T02:11:02.254Z,1005.82
2023-02-03T02:11:35.551Z,1005.82
2023-02-03T02:12:06.046Z,1005.72
2023-02-03T02:12:39.032Z,1005.72
2023-02-03T02:13:10.147Z,1005.72
2023-02-03T02:13:43.035Z,1005.72
2023-02-03T02:14:14.169Z,1005.82
2023-02-03T02:14:46.971Z,1005.82
2023-02-03T02:15:18.183Z,1005.72
2023-02-03T02:15:50.936Z,1005.72
2023-02-03T02:16:21.985Z,1005.82
2023-02-03T02:16:54.828Z,1005.82
2023-02-03T02:17:25.700Z,1006.03
2023-02-03T02:17:58.712Z,1006.03
2023-02-03T02:18:29.860Z,1005.82
2023-02-03T02:19:02.858Z,1006.03
2023-02-03T02:19:33.695Z,1006.03
2023-02-03T02:20:06.762Z,1005.93
2023-02-03T02:20:37.722Z,1005.93
2023-02-03T02:21:11.261Z,1005.82
2023-02-03T02:21:41.616Z,1005.82
2023-02-03T02:22:14.543Z,1005.72
2023-02-03T02:22:45.621Z,1005.72
2023-02-03T02:23:18.599Z,1005.72
2023-02-03T02:23:49.505Z,1005.72
2023-02-03T02:24:22.391Z,1005.82
2023-02-03T02:24:53.576Z,1005.82
2023-02-03T02:25:26.554Z,1005.82
2023-02-03T02:25:57.397Z,1005.82
2023-02-03T02:26:30.431Z,1005.72
2023-02-03T02:27:01.512Z,1005.72
2023-02-03T02:27:34.389Z,1005.62
2023-02-03T02:28:05.429Z,1005.52
2023-02-03T02:28:38.351Z,1005.52
2023-02-03T02:29:09.311Z,1005.72
2023-02-03T02:29:42.338Z,1005.72
2023-02-03T02:30:13.760Z,1005.62
2023-02-03T02:30:46.288Z,1005.62
2023-02-03T02:31:17.608Z,1005.52
2023-02-03T02:31:50.356Z,1005.52
2023-02-03T02:32:21.359Z,1005.32
2023-02-03T02:32:54.038Z,1005.32
2023-02-03T02:33:25.208Z,1005.72
2023-02-03T02:33:58.219Z,1005.72
2023-02-03T02:34:29.073Z,1005.62
2023-02-03T02:35:02.185Z,1005.62
2023-02-03T02:35:33.116Z,1005.42
2023-02-03T02:36:06.037Z,1005.32
2023-02-03T02:36:37.038Z,1005.32
2023-02-03T02:37:10.923Z,1005.52
2023-02-03T02:37:41.178Z,1005.52
2023-02-03T02:38:14.205Z,1005.42
2023-02-03T02:38:44.955Z,1005.42
2023-02-03T02:39:18.030Z,1005.42
2023-02-03T02:39:48.997Z,1005.42
2023-02-03T02:40:21.853Z,1005.42
2023-02-03T02:40:52.796Z,1005.42
2023-02-03T02:41:27.691Z,1005.52
2023-02-03T02:41:56.810Z,1005.52
2023-02-03T02:42:29.917Z,1005.42
2023-02-03T02:43:00.745Z,1005.42
2023-02-03T02:43:33.674Z,1005.62
2023-02-03T02:44:04.859Z,1005.42
2023-02-03T02:44:37.946Z,1005.42
2023-02-03T02:45:08.955Z,1005.52
2023-02-03T02:45:41.606Z,1005.52
2023-02-03T02:46:12.828Z,1005.72
2023-02-03T02:46:45.681Z,1005.72
2023-02-03T02:47:16.734Z,1005.72
2023-02-03T02:47:49.504Z,1005.72
2023-02-03T02:48:20.660Z,1005.62
2023-02-03T02:48:53.504Z,1005.62
2023-02-03T02:49:24.450Z,1005.62
2023-02-03T02:49:57.346Z,1005.62
2023-02-03T02:50:28.744Z,1005.62
2023-02-03T02:51:01.549Z,1005.62
2023-02-03T02:51:32.389Z,1005.52
2023-02-03T02:52:05.333Z,1005.52
2023-02-03T02:52:36.379Z,1005.52
2023-02-03T02:53:09.228Z,1005.62
2023-02-03T02:53:40.565Z,1005.62
2023-02-03T02:54:13.245Z,1005.62
2023-02-03T02:54:44.311Z,1005.62
2023-02-03T02:55:17.227Z,1005.62
2023-02-03T02:55:48.174Z,1005.62
2023-02-03T02:56:21.269Z,1005.52
2023-02-03T02:56:52.239Z,1005.52
2023-02-03T02:57:24.998Z,1005.42
2023-02-03T02:57:56.113Z,1005.42
2023-02-03T02:58:29.060Z,1005.42
2023-02-03T02:59:00.126Z,1005.42
2023-02-03T02:59:33.305Z,1005.32
2023-02-03T03:00:04.854Z,1005.21
2023-02-03T03:00:37.008Z,1005.21
2023-02-03T03:01:08.133Z,1005.42
2023-02-03T03:01:41.159Z,1005.42
2023-02-03T03:02:12.029Z,1005.21
2023-02-03T03:02:44.881Z,1005.21
2023-02-03T03:03:16.117Z,1005.21
2023-02-03T03:03:49.596Z,1005.21
2023-02-03T03:04:19.860Z,1005.11
2023-02-03T03:04:53.646Z,1005.11
2023-02-03T03:05:23.878Z,1005.11
2023-02-03T03:05:56.647Z,1005.11
2023-02-03T03:06:28.069Z,1004.91
2023-02-03T03:07:00.991Z,1004.91
2023-02-03T03:07:31.940Z,1005.11
2023-02-03T03:08:04.692Z,1005.21
2023-02-03T03:08:35.655Z,1005.21
2023-02-03T03:09:08.628Z,1005.01
2023-02-03T03:09:39.887Z,1005.01
2023-02-03T03:10:12.468Z,1005.01
2023-02-03T03:10:43.591Z,1005.01
2023-02-03T03:11:17.650Z,1005.11
2023-02-03T03:11:47.697Z,1005.11
2023-02-03T03:12:20.778Z,1005.11
2023-02-03T03:12:51.484Z,1005.11
2023-02-03T03:13:24.404Z,1005.01
2023-02-03T03:13:55.562Z,1005.01
2023-02-03T03:14:29.164Z,1005.21
2023-02-03T03:14:59.440Z,1005.21
2023-02-03T03:15:32.929Z,1005.11
2023-02-03T03:16:03.588Z,1005.21
2023-02-03T03:16:36.815Z,1005.21
2023-02-03T03:17:07.333Z,1005.32
2023-02-03T03:17:40.522Z,1005.32
2023-02-03T03:18:11.460Z,1005.01
2023-02-03T03:18:44.251Z,1005.01
2023-02-03T03:19:15.243Z,1005.11
2023-02-03T03:19:48.162Z,1005.11
2023-02-03T03:20:19.334Z,1004.84
2023-02-03T03:20:52.047Z,1004.84
2023-02-03T03:21:23.153Z,1005.01
2023-02-03T03:21:56.987Z,1005.01
2023-02-03T03:22:27.002Z,1005.01
2023-02-03T03:22:59.968Z,1005.01
2023-02-03T03:23:31.627Z,1005.11
2023-02-03T03:24:04.138Z,1005.21
2023-02-03T03:24:35.176Z,1005.21
2023-02-03T03:25:07.901Z,1005.11
2023-02-03T03:25:39.000Z,1005.11
2023-02-03T03:26:12.023Z,1005.21
2023-02-03T03:26:42.880Z,1005.21
2023-02-03T03:27:15.812Z,1005.32
2023-02-03T03:27:47.049Z,1005.32
2023-02-03T03:28:20.002Z,1005.32
2023-02-03T03:28:50.846Z,1005.32
2023-02-03T03:29:23.732Z,1005.52
2023-02-03T03:29:54.832Z,1005.52
2023-02-03T03:30:29.087Z,1005.52
2023-02-03T03:30:58.784Z,1005.52
2023-02-03T03:31:31.805Z,1005.72
2023-02-03T03:32:02.853Z,1005.72
2023-02-03T03:32:36.167Z,1005.72
2023-02-03T03:33:06.636Z,1005.62
2023-02-03T03:33:40.561Z,1005.62
2023-02-03T03:34:10.811Z,1005.52
2023-02-03T03:34:43.664Z,1005.52
2023-02-03T03:35:14.518Z,1005.72
2023-02-03T03:35:47.452Z,1005.72
2023-02-03T03:36:18.616Z,1005.72
2023-02-03T03:36:51.658Z,1005.72
2023-02-03T03:37:22.454Z,1005.52
2023-02-03T03:37:55.355Z,1005.52
2023-02-03T03:38:26.496Z,1005.62
2023-02-03T03:38:59.537Z,1005.62
2023-02-03T03:39:30.417Z,1005.62
2023-02-03T03:40:03.409Z,1005.52
2023-02-03T03:40:34.386Z,1005.52
2023-02-03T03:41:07.414Z,1005.52
2023-02-03T03:41:38.273Z,1005.52
2023-02-03T03:42:11.319Z,1005.52
2023-02-03T03:42:42.324Z,1005.52
2023-02-03T03:43:15.355Z,1005.62
2023-02-03T03:43:46.187Z,1005.62
2023-02-03T03:44:19.126Z,1005.52
2023-02-03T03:44:50.207Z,1005.52
2023-02-03T03:45:23.288Z,1005.42
2023-02-03T03:45:54.062Z,1005.42
2023-02-03T03:46:27.142Z,1005.52
2023-02-03T03:46:58.138Z,1005.52
2023-02-03T03:47:31.138Z,1005.32
2023-02-03T03:48:01.982Z,1005.52
2023-02-03T03:48:35.134Z,1005.52
2023-02-03T03:49:06.006Z,1005.42
2023-02-03T03:49:39.108Z,1005.42
2023-02-03T03:50:10.420Z,1005.32
2023-02-03T03:50:42.885Z,1005.32
2023-02-03T03:51:14.022Z,1005.21
2023-02-03T03:51:47.677Z,1005.21
2023-02-03T03:52:18.122Z,1005.42
2023-02-03T03:52:50.820Z,1005.42
2023-02-03T03:53:21.949Z,1005.32
2023-02-03T03:53:54.731Z,1005.32
2023-02-03T03:54:25.752Z,1005.52
2023-02-03T03:54:59.425Z,1005.52
2023-02-03T03:55:29.887Z,1005.52
2023-02-03T03:56:02.615Z,1005.52
2023-02-03T03:56:33.727Z,1005.52
2023-02-03T03:57:06.607Z,1005.52
2023-02-03T03:57:37.798Z,1005.52
2023-02-03T03:58:10.648Z,1005.42
2023-02-03T03:58:41.744Z,1005.42
2023-02-03T03:59:14.465Z,1005.21
2023-02-03T03:59:45.683Z,1005.21
2023-02-03T04:00:18.644Z,1005.21
2023-02-03T04:00:49.565Z,1005.21
2023-02-03T04:01:22.631Z,1005.32
2023-02-03T04:01:53.531Z,1005.32
2023-02-03T04:02:26.341Z,1005.01
2023-02-03T04:02:57.475Z,1005.01
2023-02-03T04:03:30.735Z,1005.11
2023-02-03T04:04:01.489Z,1005.11
2023-02-03T04:04:34.386Z,1005.21
2023-02-03T04:05:05.363Z,1004.84
2023-02-03T04:05:38.292Z,1004.84
2023-02-03T04:06:09.222Z,1005.11
2023-02-03T04:06:42.145Z,1005.11
2023-02-03T04:07:13.227Z,1005.01
2023-02-03T04:07:46.192Z,1005.01
2023-02-03T04:08:17.097Z,1004.84
2023-02-03T04:08:50.105Z,1004.84
2023-02-03T04:09:21.260Z,1004.91
2023-02-03T04:09:54.136Z,1004.91
2023-02-03T04:10:25.271Z,1004.91
2023-02-03T04:10:58.122Z,1004.91
2023-02-03T04:11:29.169Z,1004.91
2023-02-03T04:12:01.952Z,1004.91
2023-02-03T04:12:32.981Z,1005.01
2023-02-03T04:13:05.941Z,1004.84
2023-02-03T04:13:36.863Z,1004.84
2023-02-03T04:14:09.811Z,1004.91
2023-02-03T04:14:41.012Z,1004.91
2023-02-03T04:15:14.038Z,1004.84
2023-02-03T04:15:44.836Z,1004.84
2023-02-03T04:16:18.517Z,1004.91
2023-02-03T04:16:48.898Z,1004.91
2023-02-03T04:17:22.809Z,1004.84
2023-02-03T04:17:52.671Z,1004.84
2023-02-03T04:18:25.694Z,1004.91
2023-02-03T04:18:56.778Z,1004.91
2023-02-03T04:19:29.682Z,1004.74
2023-02-03T04:20:01.110Z,1004.74
2023-02-03T04:20:33.613Z,1004.91
2023-02-03T04:21:04.741Z,1004.84
2023-02-03T04:21:37.647Z,1004.84
2023-02-03T04:22:08.544Z,1005.01
2023-02-03T04:22:41.490Z,1005.01
2023-02-03T04:23:12.646Z,1005.01
2023-02-03T04:23:45.615Z,1005.01
2023-02-03T04:24:16.490Z,1004.91
2023-02-03T04:24:49.407Z,1004.91
2023-02-03T04:25:20.560Z,1005.01
2023-02-03T04:25:54.328Z,1005.01
2023-02-03T04:26:24.342Z,1005.01
2023-02-03T04:26:57.400Z,1005.01
2023-02-03T04:27:28.416Z,1005.11
2023-02-03T04:28:01.566Z,1005.11
2023-02-03T04:28:32.285Z,1005.01
2023-02-03T04:29:05.541Z,1004.91
2023-02-03T04:29:36.501Z,1004.91
2023-02-03T04:30:09.969Z,1004.74
2023-02-03T04:30:40.235Z,1004.74
2023-02-03T04:31:13.351Z,1004.91
2023-02-03T04:31:44.295Z,1004.91
2023-02-03T04:32:17.317Z,1004.74
2023-02-03T04:32:48.094Z,1004.74
2023-02-03T04:33:21.180Z,1004.91
2023-02-03T04:33:52.116Z,1004.91
2023-02-03T04:34:25.070Z,1004.84
2023-02-03T04:34:56.073Z,1004.84
2023-02-03T04:35:29.102Z,1004.64
2023-02-03T04:36:00.144Z,1004.64
2023-02-03T04:36:33.190Z,1004.64
2023-02-03T04:37:03.952Z,1004.64
2023-02-03T04:37:36.883Z,1004.64
2023-02-03T04:38:08.038Z,1004.54
2023-02-03T04:38:41.103Z,1004.54
2023-02-03T04:39:11.793Z,1004.74
2023-02-03T04:39:44.755Z,1004.74
2023-02-03T04:40:15.927Z,1004.44
2023-02-03T04:40:48.797Z,1004.44
2023-02-03T04:41:19.771Z,1004.74
2023-02-03T04:41:52.683Z,1004.74
2023-02-03T04:42:23.829Z,1004.64
2023-02-03T04:42:56.750Z,1004.64
2023-02-03T04:43:27.674Z,1004.64
2023-02-03T04:44:00.716Z,1004.64
2023-02-03T04:44:31.720Z,1004.54
2023-02-03T04:45:05.962Z,1004.44
2023-02-03T04:45:35.663Z,1004.44
2023-02-03T04:46:08.655Z,1004.54
2023-02-03T04:46:39.675Z,1004.54
2023-02-03T04:47:12.462Z,1004.44
2023-02-03T04:47:43.547Z,1004.44
2023-02-03T04:48:16.541Z,1004.54
2023-02-03T04:48:47.570Z,1004.54
2023-02-03T04:49:20.336Z,1004.44
2023-02-03T04:49:51.478Z,1004.44
2023-02-03T04:50:24.400Z,1004.44
2023-02-03T04:50:55.478Z,1004.44
2023-02-03T04:51:28.221Z,1004.44
2023-02-03T04:51:59.290Z,1004.44
2023-02-03T04:52:32.297Z,1004.44
2023-02-03T04:53:03.461Z,1004.54
2023-02-03T04:53:36.455Z,1004.54
2023-02-03T04:54:07.310Z,1004.44
2023-02-03T04:54:40.142Z,1004.44
2023-02-03T04:55:11.373Z,1004.44
2023-02-03T04:55:44.070Z,1004.44
2023-02-03T04:56:15.184Z,1004.44
2023-02-03T04:56:48.089Z,1004.44
2023-02-03T04:57:19.233Z,1004.54
2023-02-03T04:57:52.041Z,1004.54
2023-02-03T04:58:23.052Z,1004.44
2023-02-03T04:58:56.308Z,1004.44
2023-02-03T04:59:27.139Z,1004.23
2023-02-03T04:59:59.975Z,1004.23
2023-02-03T05:00:31.534Z,1004.33
2023-02-03T05:01:03.922Z,1004.33
2023-02-03T05:01:35.476Z,1004.33
2023-02-03T05:02:07.742Z,1004.33
2023-02-03T05:02:38.903Z,1004.33
2023-02-03T05:03:11.949Z,1004.33
2023-02-03T05:03:42.976Z,1004.33
2023-02-03T05:04:15.679Z,1004.33
2023-02-03T05:04:46.759Z,1004.33
2023-02-03T05:05:19.781Z,1004.64
2023-02-03T05:05:50.918Z,1004.64
2023-02-03T05:06:23.783Z,1004.33
2023-02-03T05:06:54.906Z,1004.33
2023-02-03T05:07:27.757Z,1004.23
2023-02-03T05:07:58.726Z,1004.23
2023-02-03T05:08:33.446Z,1004.33
2023-02-03T05:09:02.705Z,1004.44
2023-02-03T05:09:35.877Z,1004.44
2023-02-03T05:10:06.719Z,1004.44
2023-02-03T05:10:39.399Z,1004.44
2023-02-03T05:11:10.674Z,1004.44
2023-02-03T05:11:43.579Z,1004.44
2023-02-03T05:12:14.430Z,1004.33
2023-02-03T05:12:48.350Z,1004.33
2023-02-03T05:13:18.468Z,1004.33
2023-02-03T05:13:51.536Z,1004.33
2023-02-03T05:14:22.345Z,1004.44
2023-02-03T05:14:55.276Z,1004.44
2023-02-03T05:15:26.587Z,1004.54
2023-02-03T05:15:59.449Z,1004.54
2023-02-03T05:16:30.364Z,1004.44
2023-02-03T05:17:03.168Z,1004.44
2023-02-03T05:17:34.391Z,1004.44
2023-02-03T05:18:07.394Z,1004.33
2023-02-03T05:18:38.128Z,1004.33
2023-02-03T05:19:11.281Z,1004.33
2023-02-03T05:19:42.248Z,1004.33
2023-02-03T05:20:16.052Z,1004.44
2023-02-03T05:20:46.128Z,1004.44
2023-02-03T05:21:19.040Z,1004.44
2023-02-03T05:21:50.191Z,1004.44
2023-02-03T05:22:25.059Z,1004.54
2023-02-03T05:22:53.977Z,1004.54
2023-02-03T05:23:27.041Z,1004.44
2023-02-03T05:23:58.098Z,1004.44
2023-02-03T05:24:31.002Z,1004.33
2023-02-03T05:25:02.152Z,1004.33
2023-02-03T05:25:35.081Z,1004.23
2023-02-03T05:26:06.003Z,1004.13
2023-02-03T05:26:39.968Z,1004.13
2023-02-03T05:27:09.812Z,1004.13
2023-02-03T05:27:42.789Z,1004.13
2023-02-03T05:28:13.908Z,1004.13
2023-02-03T05:28:47.942Z,1004.13
2023-02-03T05:29:17.724Z,1004.13
2023-02-03T05:29:50.852Z,1004.13
2023-02-03T05:30:22.322Z,1003.93
2023-02-03T05:30:54.767Z,1003.93
2023-02-03T05:31:25.903Z,1004.03
2023-02-03T05:31:58.597Z,1004.03
2023-02-03T05:32:29.710Z,1004.03
2023-02-03T05:33:02.643Z,1004.03
2023-02-03T05:33:33.553Z,1004.03
2023-02-03T05:34:06.614Z,1004.03
2023-02-03T05:34:37.614Z,1004.03
2023-02-03T05:35:11.009Z,1004.23
2023-02-03T05:35:41.489Z,1004.23
2023-02-03T05:36:14.540Z,1004.13
2023-02-03T05:36:45.570Z,1004.13
2023-02-03T05:37:18.317Z,1004.03
2023-02-03T05:37:49.591Z,1004.03
2023-02-03T05:38:23.266Z,1004.23
2023-02-03T05:38:53.430Z,1004.23
2023-02-03T05:39:26.286Z,1004.13
2023-02-03T05:39:57.290Z,1004.13
2023-02-03T05:40:30.524Z,1004.03
2023-02-03T05:41:01.488Z,1004.03
2023-02-03T05:41:34.534Z,1004.03
2023-02-03T05:42:05.317Z,1003.93
2023-02-03T05:42:38.116Z,1003.93
2023-02-03T05:43:09.289Z,1003.93
2023-02-03T05:43:42.263Z,1003.93
2023-02-03T05:44:13.121Z,1003.93
2023-02-03T05:44:46.180Z,1003.93
2023-02-03T05:45:17.439Z,1003.93
2023-02-03T05:45:51.229Z,1003.93
2023-02-03T05:46:21.184Z,1003.72
2023-02-03T05:46:54.080Z,1003.72
2023-02-03T05:47:25.124Z,1004.03
2023-02-03T05:47:57.827Z,1004.03
2023-02-03T05:48:28.957Z,1003.83
2023-02-03T05:49:02.091Z,1003.83
2023-02-03T05:49:33.087Z,1004.13
2023-02-03T05:50:05.833Z,1003.83
2023-02-03T05:50:38.554Z,1003.83
2023-02-03T05:51:11.947Z,1003.83
2023-02-03T05:51:40.862Z,1003.83
2023-02-03T05:52:13.773Z,1003.72
2023-02-03T05:52:44.802Z,1003.72
2023-02-03T05:53:17.860Z,1004.13
2023-02-03T05:53:48.904Z,1004.13
2023-02-03T05:54:22.411Z,1004.03
2023-02-03T05:54:52.734Z,1004.03
2023-02-03T05:55:28.545Z,1003.93
2023-02-03T05:55:56.627Z,1003.93
2023-02-03T05:56:30.633Z,1004.03
2023-02-03T05:57:00.921Z,1004.03
2023-02-03T05:57:33.699Z,1004.13
2023-02-03T05:58:04.515Z,1004.03
2023-02-03T05:58:37.539Z,1004.03
2023-02-03T05:59:08.508Z,1004.23
2023-02-03T05:59:41.543Z,1004.23
2023-02-03T06:00:12.933Z,1004.13
2023-02-03T06:00:45.515Z,1004.13
2023-02-03T06:01:16.502Z,1004.23
2023-02-03T06:01:50.632Z,1004.23
2023-02-03T06:02:20.552Z,1004.13
2023-02-03T06:02:53.238Z,1004.13
2023-02-03T06:03:24.383Z,1004.23
2023-02-03T06:03:57.519Z,1004.23
2023-02-03T06:04:28.308Z,1004.23
2023-02-03T06:05:01.589Z,1004.23
2023-02-03T06:05:32.375Z,1004.03
2023-02-03T06:06:05.268Z,1004.03
2023-02-03T06:06:36.188Z,1004.03
2023-02-03T06:07:09.117Z,1004.03
2023-02-03T06:07:40.335Z,1004.03
2023-02-03T06:08:13.426Z,1004.23
2023-02-03T06:08:44.198Z,1004.23
2023-02-03T06:09:18.927Z,1004.03
2023-02-03T06:09:48.199Z,1004.03
2023-02-03T06:10:21.267Z,1004.03
2023-02-03T06:10:51.977Z,1004.03
2023-02-03T06:11:25.838Z,1003.83
2023-02-03T06:11:56.059Z,1003.83
2023-02-03T06:12:29.477Z,1003.93
2023-02-03T06:12:59.900Z,1003.93
2023-02-03T06:13:33.021Z,1003.83
2023-02-03T06:14:04.072Z,1003.72
2023-02-03T06:14:36.917Z,1003.72
2023-02-03T06:15:08.142Z,1003.62
2023-02-03T06:15:40.882Z,1003.62
2023-02-03T06:16:11.898Z,1003.72
2023-02-03T06:16:45.720Z,1003.72
2023-02-03T06:17:15.759Z,1003.72
2023-02-03T06:17:48.814Z,1003.72
2023-02-03T06:18:19.847Z,1003.72
2023-02-03T06:18:52.516Z,1003.72
2023-02-03T06:19:23.602Z,1003.83
2023-02-03T06:19:56.636Z,1003.83
2023-02-03T06:20:28.054Z,1003.83
2023-02-03T06:21:00.619Z,1003.83
2023-02-03T06:21:31.588Z,1003.72
2023-02-03T06:22:04.667Z,1003.83
2023-02-03T06:22:35.660Z,1003.83
2023-02-03T06:23:08.413Z,1003.83
2023-02-03T06:23:39.583Z,1003.83
2023-02-03T06:24:12.491Z,1003.83
2023-02-03T06:24:43.910Z,1003.83
2023-02-03T06:25:16.253Z,1003.83
2023-02-03T06:25:47.388Z,1003.83
2023-02-03T06:26:20.422Z,1003.93
2023-02-03T06:26:51.618Z,1003.93
2023-02-03T06:27:24.166Z,1003.93